sensor_id;sensor_type;location;lat;lon;timestamp;P1;durP1;ratioP1;P2;durP2;ratioP2
47403;SDS011;33157;51.508;4.288;2022-12-18T00:00:06;79.97;;;32.15;;
47403;SDS011;33157;51.508;4.288;2022-12-18T00:05:13;73.22;;;30.20;;
47403;SDS011;33157;51.508;4.288;2022-12-18T00:10:14;69.50;;;29.08;;
47403;SDS011;33157;51.508;4.288;2022-12-18T00:15:18;70.63;;;29.53;;
47403;SDS011;33157;51.508;4.288;2022-12-18T00:20:19;65.40;;;29.23;;
47403;SDS011;33157;51.508;4.288;2022-12-18T00:25:25;73.53;;;29.95;;
47403;SDS011;33157;51.508;4.288;2022-12-18T00:30:26;79.57;;;29.70;;
47403;SDS011;33157;51.508;4.288;2022-12-18T00:35:27;71.40;;;30.13;;
47403;SDS011;33157;51.508;4.288;2022-12-18T00:40:33;79.60;;;32.60;;
47403;SDS011;33157;51.508;4.288;2022-12-18T00:45:40;78.47;;;31.35;;
47403;SDS011;33157;51.508;4.288;2022-12-18T00:50:47;76.80;;;32.55;;
47403;SDS011;33157;51.508;4.288;2022-12-18T00:55:54;77.72;;;31.33;;
47403;SDS011;33157;51.508;4.288;2022-12-18T01:01:04;82.65;;;33.30;;
47403;SDS011;33157;51.508;4.288;2022-12-18T01:06:06;77.03;;;31.58;;
47403;SDS011;33157;51.508;4.288;2022-12-18T01:11:14;82.65;;;31.92;;
47403;SDS011;33157;51.508;4.288;2022-12-18T01:16:25;88.13;;;34.17;;
47403;SDS011;33157;51.508;4.288;2022-12-18T01:21:25;85.65;;;34.15;;
47403;SDS011;33157;51.508;4.288;2022-12-18T01:26:31;88.43;;;31.90;;
47403;SDS011;33157;51.508;4.288;2022-12-18T01:31:32;79.05;;;33.03;;
47403;SDS011;33157;51.508;4.288;2022-12-18T01:36:40;88.72;;;35.22;;
47403;SDS011;33157;51.508;4.288;2022-12-18T01:41:40;84.38;;;33.65;;
47403;SDS011;33157;51.508;4.288;2022-12-18T01:47:05;87.73;;;33.13;;
47403;SDS011;33157;51.508;4.288;2022-12-18T01:52:06;77.40;;;31.85;;
47403;SDS011;33157;51.508;4.288;2022-12-18T01:57:06;86.27;;;33.07;;
47403;SDS011;33157;51.508;4.288;2022-12-18T02:02:07;77.50;;;29.97;;
47403;SDS011;33157;51.508;4.288;2022-12-18T02:07:29;81.07;;;30.63;;
47403;SDS011;33157;51.508;4.288;2022-12-18T02:18:02;64.80;;;26.92;;
47403;SDS011;33157;51.508;4.288;2022-12-18T02:28:53;77.40;;;27.83;;
47403;SDS011;33157;51.508;4.288;2022-12-18T02:33:58;73.60;;;26.77;;
47403;SDS011;33157;51.508;4.288;2022-12-18T02:39:07;65.85;;;26.92;;
47403;SDS011;33157;51.508;4.288;2022-12-18T02:44:10;65.10;;;26.98;;
47403;SDS011;33157;51.508;4.288;2022-12-18T02:49:31;59.63;;;25.73;;
47403;SDS011;33157;51.508;4.288;2022-12-18T03:00:12;63.65;;;24.48;;
47403;SDS011;33157;51.508;4.288;2022-12-18T03:05:17;62.22;;;24.50;;
47403;SDS011;33157;51.508;4.288;2022-12-18T03:10:26;60.20;;;25.33;;
47403;SDS011;33157;51.508;4.288;2022-12-18T03:15:30;67.70;;;25.13;;
47403;SDS011;33157;51.508;4.288;2022-12-18T03:20:35;69.88;;;25.50;;
47403;SDS011;33157;51.508;4.288;2022-12-18T03:25:38;69.07;;;27.02;;
47403;SDS011;33157;51.508;4.288;2022-12-18T03:30:41;60.85;;;27.45;;
47403;SDS011;33157;51.508;4.288;2022-12-18T03:35:48;65.78;;;26.02;;
47403;SDS011;33157;51.508;4.288;2022-12-18T03:46:26;58.95;;;24.52;;
47403;SDS011;33157;51.508;4.288;2022-12-18T03:56:40;59.63;;;24.58;;
47403;SDS011;33157;51.508;4.288;2022-12-18T04:01:46;52.60;;;24.90;;
47403;SDS011;33157;51.508;4.288;2022-12-18T04:06:53;56.38;;;23.42;;
47403;SDS011;33157;51.508;4.288;2022-12-18T04:11:55;55.28;;;23.20;;
47403;SDS011;33157;51.508;4.288;2022-12-18T04:17:01;50.80;;;21.50;;
47403;SDS011;33157;51.508;4.288;2022-12-18T04:22:02;50.85;;;21.42;;
47403;SDS011;33157;51.508;4.288;2022-12-18T04:27:03;50.93;;;21.83;;
47403;SDS011;33157;51.508;4.288;2022-12-18T04:32:05;48.25;;;21.10;;
47403;SDS011;33157;51.508;4.288;2022-12-18T04:37:05;57.67;;;22.63;;
47403;SDS011;33157;51.508;4.288;2022-12-18T04:42:06;47.80;;;21.20;;
47403;SDS011;33157;51.508;4.288;2022-12-18T04:47:07;43.23;;;19.63;;
47403;SDS011;33157;51.508;4.288;2022-12-18T04:52:07;57.37;;;22.90;;
47403;SDS011;33157;51.508;4.288;2022-12-18T04:57:08;49.50;;;22.33;;
47403;SDS011;33157;51.508;4.288;2022-12-18T05:02:09;49.20;;;21.90;;
47403;SDS011;33157;51.508;4.288;2022-12-18T05:07:14;49.60;;;19.83;;
47403;SDS011;33157;51.508;4.288;2022-12-18T05:12:15;49.30;;;19.67;;
47403;SDS011;33157;51.508;4.288;2022-12-18T05:17:15;49.83;;;21.37;;
47403;SDS011;33157;51.508;4.288;2022-12-18T05:22:31;46.60;;;20.13;;
47403;SDS011;33157;51.508;4.288;2022-12-18T05:27:31;44.53;;;20.87;;
47403;SDS011;33157;51.508;4.288;2022-12-18T05:32:35;42.80;;;20.27;;
47403;SDS011;33157;51.508;4.288;2022-12-18T05:37:36;52.60;;;21.33;;
47403;SDS011;33157;51.508;4.288;2022-12-18T05:42:36;44.20;;;19.90;;
47403;SDS011;33157;51.508;4.288;2022-12-18T05:47:37;46.57;;;20.97;;
47403;SDS011;33157;51.508;4.288;2022-12-18T05:52:47;46.90;;;19.73;;
47403;SDS011;33157;51.508;4.288;2022-12-18T05:57:53;43.37;;;18.67;;
47403;SDS011;33157;51.508;4.288;2022-12-18T06:02:53;45.37;;;18.33;;
47403;SDS011;33157;51.508;4.288;2022-12-18T06:07:59;40.37;;;17.70;;
47403;SDS011;33157;51.508;4.288;2022-12-18T06:13:00;40.67;;;18.33;;
47403;SDS011;33157;51.508;4.288;2022-12-18T06:18:06;45.67;;;18.37;;
47403;SDS011;33157;51.508;4.288;2022-12-18T06:23:12;41.77;;;19.47;;
47403;SDS011;33157;51.508;4.288;2022-12-18T06:28:18;41.13;;;19.67;;
47403;SDS011;33157;51.508;4.288;2022-12-18T06:33:19;38.70;;;18.33;;
47403;SDS011;33157;51.508;4.288;2022-12-18T06:38:20;41.53;;;18.87;;
47403;SDS011;33157;51.508;4.288;2022-12-18T06:43:26;41.30;;;18.17;;
47403;SDS011;33157;51.508;4.288;2022-12-18T06:48:27;36.78;;;16.98;;
47403;SDS011;33157;51.508;4.288;2022-12-18T06:53:33;34.67;;;16.80;;
47403;SDS011;33157;51.508;4.288;2022-12-18T06:58:34;37.78;;;17.45;;
47403;SDS011;33157;51.508;4.288;2022-12-18T07:03:38;33.80;;;16.17;;
47403;SDS011;33157;51.508;4.288;2022-12-18T07:08:45;31.23;;;14.77;;
47403;SDS011;33157;51.508;4.288;2022-12-18T07:13:46;29.35;;;15.68;;
47403;SDS011;33157;51.508;4.288;2022-12-18T07:18:54;32.87;;;15.17;;
47403;SDS011;33157;51.508;4.288;2022-12-18T07:23:55;29.67;;;14.48;;
47403;SDS011;33157;51.508;4.288;2022-12-18T07:29:01;30.63;;;14.73;;
47403;SDS011;33157;51.508;4.288;2022-12-18T07:34:02;28.75;;;14.93;;
47403;SDS011;33157;51.508;4.288;2022-12-18T07:39:05;29.53;;;13.17;;
47403;SDS011;33157;51.508;4.288;2022-12-18T07:44:08;31.02;;;14.07;;
47403;SDS011;33157;51.508;4.288;2022-12-18T07:49:10;26.42;;;13.13;;
47403;SDS011;33157;51.508;4.288;2022-12-18T07:54:16;27.60;;;13.57;;
47403;SDS011;33157;51.508;4.288;2022-12-18T07:59:17;28.10;;;12.70;;
47403;SDS011;33157;51.508;4.288;2022-12-18T08:04:23;27.45;;;14.55;;
47403;SDS011;33157;51.508;4.288;2022-12-18T08:09:24;27.10;;;14.60;;
47403;SDS011;33157;51.508;4.288;2022-12-18T08:14:34;27.67;;;14.63;;
47403;SDS011;33157;51.508;4.288;2022-12-18T08:19:34;25.10;;;11.85;;
47403;SDS011;33157;51.508;4.288;2022-12-18T08:24:35;22.03;;;13.80;;
47403;SDS011;33157;51.508;4.288;2022-12-18T08:29:44;21.67;;;11.37;;
47403;SDS011;33157;51.508;4.288;2022-12-18T08:34:45;18.35;;;9.23;;
47403;SDS011;33157;51.508;4.288;2022-12-18T08:39:51;17.33;;;8.57;;
47403;SDS011;33157;51.508;4.288;2022-12-18T08:44:51;16.70;;;8.77;;
47403;SDS011;33157;51.508;4.288;2022-12-18T08:49:58;17.83;;;9.70;;
47403;SDS011;33157;51.508;4.288;2022-12-18T08:54:58;16.42;;;9.27;;
47403;SDS011;33157;51.508;4.288;2022-12-18T08:59:59;19.47;;;10.00;;
47403;SDS011;33157;51.508;4.288;2022-12-18T09:05:06;19.17;;;9.30;;
47403;SDS011;33157;51.508;4.288;2022-12-18T09:10:07;18.73;;;9.55;;
47403;SDS011;33157;51.508;4.288;2022-12-18T09:15:13;17.97;;;9.87;;
47403;SDS011;33157;51.508;4.288;2022-12-18T09:20:13;18.88;;;9.38;;
47403;SDS011;33157;51.508;4.288;2022-12-18T09:25:23;19.40;;;10.80;;
47403;SDS011;33157;51.508;4.288;2022-12-18T09:30:24;17.83;;;9.57;;
47403;SDS011;33157;51.508;4.288;2022-12-18T09:35:24;23.60;;;10.03;;
47403;SDS011;33157;51.508;4.288;2022-12-18T09:40:34;20.57;;;12.03;;
47403;SDS011;33157;51.508;4.288;2022-12-18T09:45:46;20.50;;;11.03;;
47403;SDS011;33157;51.508;4.288;2022-12-18T09:50:59;24.13;;;11.88;;
47403;SDS011;33157;51.508;4.288;2022-12-18T09:56:03;22.63;;;12.80;;
47403;SDS011;33157;51.508;4.288;2022-12-18T10:01:11;20.55;;;10.70;;
47403;SDS011;33157;51.508;4.288;2022-12-18T10:06:18;22.25;;;11.23;;
47403;SDS011;33157;51.508;4.288;2022-12-18T10:27:21;18.33;;;9.70;;
47403;SDS011;33157;51.508;4.288;2022-12-18T10:32:30;15.70;;;8.93;;
47403;SDS011;33157;51.508;4.288;2022-12-18T10:37:31;32.88;;;14.85;;
47403;SDS011;33157;51.508;4.288;2022-12-18T10:42:37;20.20;;;10.37;;
47403;SDS011;33157;51.508;4.288;2022-12-18T10:47:47;17.83;;;9.27;;
47403;SDS011;33157;51.508;4.288;2022-12-18T10:52:53;17.37;;;9.73;;
47403;SDS011;33157;51.508;4.288;2022-12-18T10:57:55;19.75;;;10.00;;
47403;SDS011;33157;51.508;4.288;2022-12-18T11:03:35;19.15;;;9.98;;
47403;SDS011;33157;51.508;4.288;2022-12-18T11:09:18;19.25;;;8.35;;
47403;SDS011;33157;51.508;4.288;2022-12-18T11:14:22;18.45;;;10.63;;
47403;SDS011;33157;51.508;4.288;2022-12-18T11:24:38;16.90;;;9.40;;
47403;SDS011;33157;51.508;4.288;2022-12-18T11:29:40;15.95;;;9.48;;
47403;SDS011;33157;51.508;4.288;2022-12-18T11:34:46;17.73;;;8.80;;
47403;SDS011;33157;51.508;4.288;2022-12-18T11:39:50;18.48;;;10.00;;
47403;SDS011;33157;51.508;4.288;2022-12-18T11:45:03;18.50;;;10.77;;
47403;SDS011;33157;51.508;4.288;2022-12-18T11:55:41;16.65;;;9.18;;
47403;SDS011;33157;51.508;4.288;2022-12-18T12:00:52;15.43;;;9.60;;
47403;SDS011;33157;51.508;4.288;2022-12-18T12:06:08;20.25;;;10.90;;
47403;SDS011;33157;51.508;4.288;2022-12-18T12:16:59;16.13;;;9.63;;
47403;SDS011;33157;51.508;4.288;2022-12-18T12:38:13;17.88;;;10.02;;
47403;SDS011;33157;51.508;4.288;2022-12-18T12:54:00;20.58;;;11.10;;
47403;SDS011;33157;51.508;4.288;2022-12-18T12:59:10;18.77;;;11.57;;
47403;SDS011;33157;51.508;4.288;2022-12-18T13:04:36;18.63;;;10.70;;
47403;SDS011;33157;51.508;4.288;2022-12-18T13:20:49;20.50;;;11.35;;
47403;SDS011;33157;51.508;4.288;2022-12-18T13:31:13;24.05;;;12.50;;
47403;SDS011;33157;51.508;4.288;2022-12-18T13:36:16;21.50;;;12.43;;
47403;SDS011;33157;51.508;4.288;2022-12-18T13:41:40;24.30;;;12.82;;
47403;SDS011;33157;51.508;4.288;2022-12-18T13:46:44;22.88;;;13.38;;
47403;SDS011;33157;51.508;4.288;2022-12-18T13:51:55;22.95;;;12.35;;
47403;SDS011;33157;51.508;4.288;2022-12-18T13:56:59;22.30;;;11.73;;
47403;SDS011;33157;51.508;4.288;2022-12-18T14:02:07;23.35;;;13.52;;
47403;SDS011;33157;51.508;4.288;2022-12-18T14:12:16;54.25;;;22.42;;
47403;SDS011;33157;51.508;4.288;2022-12-18T14:17:39;22.48;;;12.57;;
47403;SDS011;33157;51.508;4.288;2022-12-18T14:22:42;22.92;;;14.00;;
47403;SDS011;33157;51.508;4.288;2022-12-18T14:27:45;22.77;;;12.55;;
47403;SDS011;33157;51.508;4.288;2022-12-18T14:32:59;20.60;;;11.85;;
47403;SDS011;33157;51.508;4.288;2022-12-18T14:43:16;23.60;;;12.73;;
47403;SDS011;33157;51.508;4.288;2022-12-18T14:48:50;22.95;;;13.13;;
47403;SDS011;33157;51.508;4.288;2022-12-18T14:53:44;20.67;;;12.35;;
47403;SDS011;33157;51.508;4.288;2022-12-18T14:59:02;22.37;;;12.70;;
47403;SDS011;33157;51.508;4.288;2022-12-18T15:04:04;24.25;;;13.45;;
47403;SDS011;33157;51.508;4.288;2022-12-18T15:09:27;21.35;;;12.63;;
47403;SDS011;33157;51.508;4.288;2022-12-18T15:19:40;22.92;;;12.90;;
47403;SDS011;33157;51.508;4.288;2022-12-18T15:24:42;23.27;;;12.95;;
47403;SDS011;33157;51.508;4.288;2022-12-18T15:29:42;22.40;;;12.90;;
47403;SDS011;33157;51.508;4.288;2022-12-18T15:34:48;19.80;;;11.93;;
47403;SDS011;33157;51.508;4.288;2022-12-18T15:39:49;22.80;;;12.90;;
47403;SDS011;33157;51.508;4.288;2022-12-18T15:44:55;22.40;;;12.38;;
47403;SDS011;33157;51.508;4.288;2022-12-18T15:49:55;28.27;;;13.27;;
47403;SDS011;33157;51.508;4.288;2022-12-18T15:55:01;23.92;;;12.93;;
47403;SDS011;33157;51.508;4.288;2022-12-18T16:00:26;22.67;;;12.25;;
47403;SDS011;33157;51.508;4.288;2022-12-18T16:05:32;24.13;;;12.52;;
47403;SDS011;33157;51.508;4.288;2022-12-18T16:10:33;24.23;;;12.63;;
47403;SDS011;33157;51.508;4.288;2022-12-18T16:15:35;23.35;;;13.40;;
47403;SDS011;33157;51.508;4.288;2022-12-18T16:20:38;25.65;;;14.07;;
47403;SDS011;33157;51.508;4.288;2022-12-18T16:25:39;25.05;;;13.80;;
47403;SDS011;33157;51.508;4.288;2022-12-18T16:30:39;23.52;;;14.02;;
47403;SDS011;33157;51.508;4.288;2022-12-18T16:35:40;30.27;;;19.92;;
47403;SDS011;33157;51.508;4.288;2022-12-18T16:40:44;28.20;;;18.20;;
47403;SDS011;33157;51.508;4.288;2022-12-18T16:46:03;29.73;;;17.17;;
47403;SDS011;33157;51.508;4.288;2022-12-18T16:51:06;27.08;;;16.40;;
47403;SDS011;33157;51.508;4.288;2022-12-18T16:56:07;25.15;;;14.75;;
47403;SDS011;33157;51.508;4.288;2022-12-18T17:01:09;26.90;;;15.15;;
47403;SDS011;33157;51.508;4.288;2022-12-18T17:11:16;28.00;;;16.05;;
47403;SDS011;33157;51.508;4.288;2022-12-18T17:16:24;28.00;;;15.50;;
47403;SDS011;33157;51.508;4.288;2022-12-18T17:21:25;29.10;;;15.93;;
47403;SDS011;33157;51.508;4.288;2022-12-18T17:26:31;30.35;;;20.10;;
47403;SDS011;33157;51.508;4.288;2022-12-18T17:31:33;29.27;;;16.35;;
47403;SDS011;33157;51.508;4.288;2022-12-18T17:36:34;31.42;;;16.25;;
47403;SDS011;33157;51.508;4.288;2022-12-18T17:41:34;29.08;;;16.25;;
47403;SDS011;33157;51.508;4.288;2022-12-18T17:46:35;30.08;;;16.95;;
47403;SDS011;33157;51.508;4.288;2022-12-18T17:51:36;33.58;;;17.63;;
47403;SDS011;33157;51.508;4.288;2022-12-18T17:56:36;30.38;;;16.75;;
47403;SDS011;33157;51.508;4.288;2022-12-18T18:01:37;31.70;;;17.30;;
47403;SDS011;33157;51.508;4.288;2022-12-18T18:06:38;35.50;;;18.65;;
47403;SDS011;33157;51.508;4.288;2022-12-18T18:11:38;32.15;;;17.65;;
47403;SDS011;33157;51.508;4.288;2022-12-18T18:17:09;34.55;;;17.83;;
47403;SDS011;33157;51.508;4.288;2022-12-18T18:22:10;36.05;;;19.50;;
47403;SDS011;33157;51.508;4.288;2022-12-18T18:27:11;40.03;;;21.90;;
47403;SDS011;33157;51.508;4.288;2022-12-18T18:32:13;42.85;;;22.17;;
47403;SDS011;33157;51.508;4.288;2022-12-18T18:37:13;40.92;;;22.00;;
47403;SDS011;33157;51.508;4.288;2022-12-18T18:42:14;37.65;;;20.80;;
47403;SDS011;33157;51.508;4.288;2022-12-18T18:47:18;47.33;;;26.55;;
47403;SDS011;33157;51.508;4.288;2022-12-18T18:52:25;37.63;;;20.45;;
47403;SDS011;33157;51.508;4.288;2022-12-18T18:57:27;38.70;;;20.42;;
47403;SDS011;33157;51.508;4.288;2022-12-18T19:02:28;38.92;;;22.45;;
47403;SDS011;33157;51.508;4.288;2022-12-18T19:07:29;39.78;;;22.05;;
47403;SDS011;33157;51.508;4.288;2022-12-18T19:12:30;38.80;;;20.15;;
47403;SDS011;33157;51.508;4.288;2022-12-18T19:17:54;42.72;;;22.17;;
47403;SDS011;33157;51.508;4.288;2022-12-18T19:22:55;40.95;;;21.92;;
47403;SDS011;33157;51.508;4.288;2022-12-18T19:28:02;40.90;;;22.20;;
47403;SDS011;33157;51.508;4.288;2022-12-18T19:33:03;42.70;;;20.77;;
47403;SDS011;33157;51.508;4.288;2022-12-18T19:38:10;38.97;;;21.97;;
47403;SDS011;33157;51.508;4.288;2022-12-18T19:43:11;43.17;;;22.63;;
47403;SDS011;33157;51.508;4.288;2022-12-18T19:48:21;39.47;;;20.95;;
47403;SDS011;33157;51.508;4.288;2022-12-18T19:53:22;44.20;;;24.15;;
47403;SDS011;33157;51.508;4.288;2022-12-18T19:58:22;46.40;;;24.50;;
47403;SDS011;33157;51.508;4.288;2022-12-18T20:03:23;55.47;;;30.52;;
47403;SDS011;33157;51.508;4.288;2022-12-18T20:08:24;41.58;;;21.35;;
47403;SDS011;33157;51.508;4.288;2022-12-18T20:13:30;42.35;;;22.27;;
47403;SDS011;33157;51.508;4.288;2022-12-18T20:18:30;44.28;;;20.85;;
47403;SDS011;33157;51.508;4.288;2022-12-18T20:23:31;44.78;;;23.27;;
47403;SDS011;33157;51.508;4.288;2022-12-18T20:28:37;53.00;;;25.13;;
47403;SDS011;33157;51.508;4.288;2022-12-18T20:33:38;45.60;;;23.80;;
47403;SDS011;33157;51.508;4.288;2022-12-18T20:38:44;53.20;;;24.70;;
47403;SDS011;33157;51.508;4.288;2022-12-18T20:43:44;48.47;;;24.90;;
47403;SDS011;33157;51.508;4.288;2022-12-18T20:48:50;48.38;;;25.80;;
47403;SDS011;33157;51.508;4.288;2022-12-18T20:53:53;50.15;;;24.00;;
47403;SDS011;33157;51.508;4.288;2022-12-18T20:59:03;47.45;;;24.63;;
47403;SDS011;33157;51.508;4.288;2022-12-18T21:04:04;49.22;;;23.58;;
47403;SDS011;33157;51.508;4.288;2022-12-18T21:09:05;52.95;;;26.23;;
47403;SDS011;33157;51.508;4.288;2022-12-18T21:14:09;52.10;;;23.90;;
47403;SDS011;33157;51.508;4.288;2022-12-18T21:19:15;57.05;;;28.02;;
47403;SDS011;33157;51.508;4.288;2022-12-18T21:24:23;46.35;;;23.73;;
47403;SDS011;33157;51.508;4.288;2022-12-18T21:29:24;46.45;;;23.55;;
47403;SDS011;33157;51.508;4.288;2022-12-18T21:34:31;48.85;;;25.27;;
47403;SDS011;33157;51.508;4.288;2022-12-18T21:39:32;50.70;;;24.73;;
47403;SDS011;33157;51.508;4.288;2022-12-18T21:44:33;50.13;;;22.58;;
47403;SDS011;33157;51.508;4.288;2022-12-18T21:49:33;50.08;;;23.42;;
47403;SDS011;33157;51.508;4.288;2022-12-18T21:54:34;48.30;;;23.25;;
47403;SDS011;33157;51.508;4.288;2022-12-18T21:59:35;45.40;;;24.33;;
47403;SDS011;33157;51.508;4.288;2022-12-18T22:04:37;44.63;;;23.38;;
47403;SDS011;33157;51.508;4.288;2022-12-18T22:09:37;49.35;;;23.90;;
47403;SDS011;33157;51.508;4.288;2022-12-18T22:14:44;47.85;;;22.83;;
47403;SDS011;33157;51.508;4.288;2022-12-18T22:19:44;47.55;;;23.45;;
47403;SDS011;33157;51.508;4.288;2022-12-18T22:24:45;48.28;;;23.27;;
47403;SDS011;33157;51.508;4.288;2022-12-18T22:29:45;48.10;;;22.13;;
47403;SDS011;33157;51.508;4.288;2022-12-18T22:35:09;41.88;;;21.02;;
47403;SDS011;33157;51.508;4.288;2022-12-18T22:40:16;41.72;;;21.42;;
47403;SDS011;33157;51.508;4.288;2022-12-18T22:45:19;45.22;;;23.00;;
47403;SDS011;33157;51.508;4.288;2022-12-18T22:50:19;46.33;;;23.00;;
47403;SDS011;33157;51.508;4.288;2022-12-18T22:55:20;50.65;;;23.83;;
47403;SDS011;33157;51.508;4.288;2022-12-18T23:00:26;49.60;;;23.08;;
47403;SDS011;33157;51.508;4.288;2022-12-18T23:05:27;49.15;;;22.92;;
47403;SDS011;33157;51.508;4.288;2022-12-18T23:15:40;49.50;;;22.88;;
47403;SDS011;33157;51.508;4.288;2022-12-18T23:20:41;49.15;;;23.48;;
47403;SDS011;33157;51.508;4.288;2022-12-18T23:25:41;52.25;;;24.15;;
47403;SDS011;33157;51.508;4.288;2022-12-18T23:30:42;51.10;;;24.27;;
47403;SDS011;33157;51.508;4.288;2022-12-18T23:35:48;53.10;;;25.48;;
47403;SDS011;33157;51.508;4.288;2022-12-18T23:40:49;56.53;;;26.85;;
47403;SDS011;33157;51.508;4.288;2022-12-18T23:45:55;52.38;;;24.65;;
47403;SDS011;33157;51.508;4.288;2022-12-18T23:50:56;48.83;;;23.50;;
47403;SDS011;33157;51.508;4.288;2022-12-18T23:55:57;50.70;;;23.83;;
